Time;durP1;ratioP1;P1;durP2;ratioP2;P2;SDS_P1;SDS_P2;PMS_P1;PMS_P2;Temp;Humidity;BMP_temperature;BMP_pressure;BME280_temperature;BME280_humidity;BME280_pressure;Samples;Min_cycle;Max_cycle;Signal;HPM_P1;HPM_P2
2023/11/08 00:02:20;;;;;;;19.77;3.78;;;;;;;-146.27;91.10;83525.34;5032663;28;20079;-68
2023/11/08 00:04:45;;;;;;;16.13;3.80;;;;;;;-146.27;91.26;83489.19;5023668;28;20021;-68
2023/11/08 00:07:11;;;;;;;9.43;3.47;;;;;;;-146.27;91.21;83463.06;5030962;28;20382;-68
2023/11/08 00:09:36;;;;;;;11.18;3.85;;;;;;;-146.27;91.22;83517.31;5027895;28;20030;-70
2023/11/08 00:12:03;;;;;;;12.35;3.58;;;;;;;-146.27;91.48;83495.22;5038656;28;20084;-69
2023/11/08 00:14:28;;;;;;;12.40;3.38;;;;;;;-146.27;90.93;83505.25;5028624;28;20026;-69
2023/11/08 00:16:55;;;;;;;12.27;3.60;;;;;;;-146.27;91.00;83495.22;5033747;28;20060;-69
2023/11/08 00:19:21;;;;;;;7.95;2.97;;;;;;;-146.27;91.70;83539.41;5031277;28;20456;-69
2023/11/08 00:21:46;;;;;;;11.57;3.28;;;;;;;-146.27;90.99;83477.13;5022297;28;20053;-69
2023/11/08 00:24:13;;;;;;;17.23;3.20;;;;;;;-146.27;92.34;83565.53;5023381;28;20067;-69
2023/11/08 00:26:38;;;;;;;9.85;3.58;;;;;;;-146.27;92.44;83565.53;5039810;28;20401;-69
2023/11/08 00:29:04;;;;;;;11.73;3.42;;;;;;;-146.27;91.88;83523.34;5026247;28;20022;-69
2023/11/08 00:31:29;;;;;;;8.55;2.58;;;;;;;-146.27;91.65;83505.25;5019917;28;20026;-69
2023/11/08 00:33:54;;;;;;;16.98;3.05;;;;;;;-146.27;91.60;83503.25;5030144;28;20092;-69
2023/11/08 00:36:20;;;;;;;10.55;2.90;;;;;;;-146.27;90.98;83541.41;5032616;28;20056;-68
2023/11/08 00:38:46;;;;;;;10.07;2.80;;;;;;;-146.27;90.60;83527.34;5030904;28;20032;-68
2023/11/08 00:41:15;;;;;;;16.55;2.60;;;;;;;-146.27;91.06;83521.34;5030521;28;20104;-68
2023/11/08 00:43:43;;;;;;;6.40;2.47;;;;;;;-146.27;90.50;83485.16;5027410;28;20025;-69
2023/11/08 00:46:09;;;;;;;7.13;2.42;;;;;;;-146.27;90.18;83461.06;5024178;28;20041;-68
2023/11/08 00:48:36;;;;;;;11.13;2.30;;;;;;;-146.27;89.89;83461.06;5031697;28;20962;-69
2023/11/08 00:51:01;;;;;;;7.07;2.63;;;;;;;-146.27;89.87;83449.00;5030614;28;20121;-69
2023/11/08 00:53:27;;;;;;;7.60;2.55;;;;;;;-146.27;90.10;83449.00;5030223;28;20097;-68
2023/11/08 00:55:52;;;;;;;9.43;2.47;;;;;;;-146.27;90.11;83479.13;5035511;28;20018;-69
2023/11/08 00:58:18;;;;;;;12.85;2.47;;;;;;;-146.27;90.21;83527.34;5037041;28;20056;-69
2023/11/08 01:00:44;;;;;;;7.03;2.13;;;;;;;-146.27;90.08;83511.28;5029465;28;20434;-69
2023/11/08 01:03:12;;;;;;;8.00;2.13;;;;;;;-146.27;89.83;83446.97;5030460;28;20460;-69
2023/11/08 01:05:37;;;;;;;14.60;2.40;;;;;;;-146.27;90.03;83444.97;5028450;28;20116;-69
2023/11/08 01:08:03;;;;;;;10.93;4.07;;;;;;;-146.27;90.31;83501.22;5027241;28;20568;-68
2023/11/08 01:10:28;;;;;;;6.82;2.55;;;;;;;-146.27;90.21;83511.28;5026879;28;20500;-69
2023/11/08 01:12:53;;;;;;;9.57;2.60;;;;;;;-146.27;90.63;83519.31;5033894;28;20029;-69
2023/11/08 01:15:20;;;;;;;4.35;2.53;;;;;;;-146.27;90.44;83499.22;5029447;28;20382;-69
2023/11/08 01:17:47;;;;;;;16.25;3.10;;;;;;;-146.27;90.81;83487.16;5030779;28;20049;-69
2023/11/08 01:20:12;;;;;;;13.88;2.78;;;;;;;-146.27;91.69;83557.50;5039189;28;20459;-69
2023/11/08 01:22:39;;;;;;;9.18;2.80;;;;;;;-146.27;90.66;83533.38;5030850;28;20053;-69
2023/11/08 01:25:06;;;;;;;11.68;3.20;;;;;;;-146.27;91.09;83561.53;5025785;28;20488;-69
2023/11/08 01:27:31;;;;;;;9.48;3.53;;;;;;;-146.27;90.45;83465.06;5036523;28;20112;-69
2023/11/08 01:29:56;;;;;;;9.70;3.50;;;;;;;-146.27;90.50;83451.00;5031058;28;20120;-68
2023/11/08 01:32:22;;;;;;;6.22;3.67;;;;;;;-146.27;91.48;83541.41;5027026;28;20053;-68
2023/11/08 01:34:47;;;;;;;12.95;4.18;;;;;;;-146.27;91.04;83505.25;5034781;28;20022;-69
2023/11/08 01:37:12;;;;;;;12.23;4.40;;;;;;;-146.27;91.04;83515.31;5028902;28;20033;-68
2023/11/08 01:39:38;;;;;;;12.95;4.38;;;;;;;-146.27;90.83;83513.28;5026363;28;20430;-69
2023/11/08 01:42:03;;;;;;;11.10;4.30;;;;;;;-146.27;91.39;83513.28;5031468;28;20473;-69
2023/11/08 01:44:29;;;;;;;13.43;4.70;;;;;;;-146.27;90.89;83487.16;5022053;28;20473;-69
2023/11/08 01:46:55;;;;;;;9.95;4.53;;;;;;;-146.27;91.43;83537.41;5026065;28;20116;-69
2023/11/08 01:49:27;;;;;;;17.33;4.07;;;;;;;-146.27;90.78;83505.25;5034734;28;20435;-69
2023/11/08 01:51:53;;;;;;;12.88;3.90;;;;;;;-146.27;90.69;83521.34;5029397;28;20063;-69
2023/11/08 01:54:19;;;;;;;10.23;3.42;;;;;;;-146.27;90.64;83491.19;5033588;28;20063;-69
2023/11/08 01:56:49;;;;;;;9.88;3.95;;;;;;;-146.27;90.68;83551.47;5036588;28;20085;-68
2023/11/08 01:59:17;;;;;;;12.15;3.42;;;;;;;-146.27;91.61;83571.56;5035667;28;20030;-69
2023/11/08 02:01:44;;;;;;;11.13;3.20;;;;;;;-146.27;91.19;83527.34;5030213;28;20426;-68
2023/11/08 02:04:09;;;;;;;9.60;3.33;;;;;;;-146.27;90.81;83521.34;5027130;28;20095;-68
2023/11/08 02:06:35;;;;;;;9.80;3.05;;;;;;;-146.27;90.32;83517.31;5041766;28;20125;-68
2023/11/08 02:09:01;;;;;;;13.15;3.75;;;;;;;-146.27;90.18;83517.31;5037420;28;20109;-68
2023/11/08 02:11:30;;;;;;;9.55;3.17;;;;;;;-146.27;90.17;83513.28;5033775;28;20025;-68
2023/11/08 02:13:56;;;;;;;12.13;2.85;;;;;;;-146.27;90.13;83509.28;5029307;28;20022;-70
2023/11/08 02:16:22;;;;;;;5.80;2.58;;;;;;;-146.27;90.38;83509.28;5030364;28;20033;-68
2023/11/08 02:18:48;;;;;;;8.18;2.88;;;;;;;-146.27;90.87;83541.41;5035318;28;20037;-68
2023/11/08 02:21:13;;;;;;;10.52;3.08;;;;;;;-146.27;91.01;83533.38;5040705;28;20488;-69
2023/11/08 02:23:39;;;;;;;15.18;3.10;;;;;;;-146.27;90.67;83557.50;5027239;28;20034;-69
2023/11/08 02:26:04;;;;;;;6.85;2.40;;;;;;;-146.27;91.07;83545.44;5018785;28;20111;-68
2023/11/08 02:28:30;;;;;;;15.52;3.33;;;;;;;-146.27;91.07;83509.28;5043105;28;20064;-69
2023/11/08 02:30:56;;;;;;;12.43;2.90;;;;;;;-146.27;91.23;83569.56;5029702;28;20017;-68
2023/11/08 02:33:25;;;;;;;9.77;3.72;;;;;;;-146.27;91.58;83543.44;5029318;28;20057;-68
2023/11/08 02:35:51;;;;;;;12.77;3.17;;;;;;;-146.27;91.48;83541.41;5029275;28;20029;-68
2023/11/08 02:38:17;;;;;;;10.63;3.67;;;;;;;-146.27;91.10;83521.34;5038739;28;20481;-68
2023/11/08 02:40:43;;;;;;;11.85;4.68;;;;;;;-146.27;91.51;83545.44;5029249;28;20036;-68
2023/11/08 02:43:09;;;;;;;13.38;4.47;;;;;;;-146.27;90.61;83513.28;5030920;28;20032;-68
2023/11/08 02:45:35;;;;;;;18.00;4.50;;;;;;;-146.27;91.02;83485.16;5025993;28;20083;-68
2023/11/08 02:48:02;;;;;;;13.30;4.75;;;;;;;-146.27;92.44;83585.63;5036898;28;20021;-69
2023/11/08 02:50:28;;;;;;;10.20;4.78;;;;;;;-146.27;91.88;83539.41;5025529;28;20124;-66
2023/11/08 02:52:54;;;;;;;12.10;4.93;;;;;;;-146.27;91.99;83573.56;5036579;28;20140;-67
2023/11/08 02:55:19;;;;;;;15.68;5.05;;;;;;;-146.27;91.45;83513.28;5039611;28;20120;-67
2023/11/08 02:57:44;;;;;;;12.88;5.07;;;;;;;-146.27;91.33;83533.38;5044211;28;20025;-66
2023/11/08 03:00:11;;;;;;;14.05;5.43;;;;;;;-146.27;91.83;83553.47;5031583;28;20436;-66
2023/11/08 03:02:39;;;;;;;13.95;4.90;;;;;;;-146.27;91.56;83521.34;5019020;28;20032;-66
2023/11/08 03:05:05;;;;;;;12.85;5.10;;;;;;;-146.27;91.32;83517.31;5036888;28;20021;-66
2023/11/08 03:07:30;;;;;;;12.48;5.07;;;;;;;-146.27;90.70;83487.16;5017861;28;20059;-67
2023/11/08 03:09:55;;;;;;;10.60;4.65;;;;;;;-146.27;91.12;83529.38;5025987;28;20025;-68
2023/11/08 03:12:21;;;;;;;14.02;5.57;;;;;;;-146.27;91.31;83559.50;5035663;28;20025;-66
2023/11/08 03:14:46;;;;;;;15.20;4.63;;;;;;;-146.27;90.28;83501.22;5026033;28;20084;-66
2023/11/08 03:17:12;;;;;;;18.35;4.47;;;;;;;-146.27;91.15;83525.34;5034160;28;20068;-66
2023/11/08 03:19:37;;;;;;;11.60;4.13;;;;;;;-146.27;90.89;83571.56;5037421;28;20420;-66
2023/11/08 03:22:02;;;;;;;9.60;4.15;;;;;;;-146.27;90.69;83561.53;5017936;28;20026;-66
2023/11/08 03:24:28;;;;;;;14.20;4.47;;;;;;;-146.27;91.57;83591.66;5022302;28;20030;-66
2023/11/08 03:26:53;;;;;;;17.08;5.18;;;;;;;-146.27;91.12;83537.41;5033999;28;20035;-66
2023/11/08 03:29:20;;;;;;;20.00;5.50;;;;;;;-146.27;90.21;83473.09;5032578;28;20508;-67
2023/11/08 03:31:45;;;;;;;13.98;4.75;;;;;;;-146.27;89.72;83503.25;5032125;28;20068;-66
2023/11/08 03:34:11;;;;;;;14.38;4.82;;;;;;;-146.27;89.66;83505.25;5034460;28;20053;-65
2023/11/08 03:36:37;;;;;;;13.23;5.22;;;;;;;-146.27;89.90;83497.22;5033587;28;20044;-66
2023/11/08 03:39:08;;;;;;;12.18;4.35;;;;;;;-146.27;90.90;83581.59;5030204;28;20063;-66
2023/11/08 03:41:34;;;;;;;17.13;4.82;;;;;;;-146.27;90.48;83547.44;5034102;28;20033;-66
2023/11/08 03:43:59;;;;;;;10.95;4.60;;;;;;;-146.27;90.21;83489.19;5030246;28;20023;-66
2023/11/08 03:46:25;;;;;;;12.63;5.13;;;;;;;-146.27;90.28;83539.41;5033605;28;20052;-66
2023/11/08 03:48:54;;;;;;;11.27;4.65;;;;;;;-146.27;90.69;83553.47;5035234;28;20029;-66
2023/11/08 03:51:19;;;;;;;16.98;5.88;;;;;;;-146.27;91.06;83549.47;5037154;28;20494;-66
2023/11/08 03:53:45;;;;;;;16.48;5.78;;;;;;;-146.27;90.54;83541.41;5046212;28;20033;-67
2023/11/08 03:56:14;;;;;;;15.25;5.07;;;;;;;-146.27;90.37;83517.31;5031521;28;20048;-67
2023/11/08 03:58:39;;;;;;;19.80;5.05;;;;;;;-146.27;90.38;83547.44;5028692;28;20034;-66
2023/11/08 04:01:05;;;;;;;16.48;5.82;;;;;;;-146.27;90.96;83613.75;5029339;28;20032;-69
2023/11/08 04:03:31;;;;;;;10.10;5.10;;;;;;;-146.27;90.76;83595.69;5031504;28;20151;-69
2023/11/08 04:05:57;;;;;;;10.82;4.90;;;;;;;-146.27;91.78;83617.78;5022672;28;20057;-69
2023/11/08 04:08:22;;;;;;;10.13;4.93;;;;;;;-146.27;90.86;83571.56;5034111;28;20039;-68
2023/11/08 04:10:47;;;;;;;18.38;5.10;;;;;;;-146.27;91.02;83597.69;5037789;28;20032;-68
2023/11/08 04:13:13;;;;;;;14.82;4.72;;;;;;;-146.27;90.50;83589.66;5032488;28;20034;-68
2023/11/08 04:15:38;;;;;;;21.52;5.47;;;;;;;-146.27;90.62;83569.56;5026191;28;20032;-68
2023/11/08 04:18:04;;;;;;;18.90;4.93;;;;;;;-146.27;90.20;83587.63;5039590;28;20555;-69
2023/11/08 04:20:29;;;;;;;31.92;7.18;;;;;;;-146.27;90.65;83573.56;5033374;28;20022;-69
2023/11/08 04:22:55;;;;;;;15.05;5.47;;;;;;;-146.27;90.07;83573.56;5026124;28;20095;-68
2023/11/08 04:25:21;;;;;;;20.48;6.15;;;;;;;-146.27;89.86;83573.56;5031669;28;20029;-68
2023/11/08 04:27:46;;;;;;;11.75;6.22;;;;;;;-146.27;90.60;83605.72;5031365;28;20026;-68
2023/11/08 04:30:13;;;;;;;12.57;6.20;;;;;;;-146.27;90.68;83690.13;5026257;28;20108;-68
2023/11/08 04:32:40;;;;;;;12.13;5.82;;;;;;;-146.27;91.55;83625.81;5035067;28;20498;-68
2023/11/08 04:35:06;;;;;;;26.63;7.38;;;;;;;-146.27;91.27;83613.75;5017835;28;20128;-68
2023/11/08 04:37:33;;;;;;;18.60;7.60;;;;;;;-146.27;90.40;83573.56;5031697;28;20037;-68
2023/11/08 04:39:58;;;;;;;19.23;7.40;;;;;;;-146.27;89.69;83563.53;5017559;28;20045;-68
2023/11/08 04:42:25;;;;;;;11.07;6.38;;;;;;;-146.27;89.87;83557.50;5025925;28;20069;-65
2023/11/08 04:44:50;;;;;;;15.73;6.93;;;;;;;-146.27;89.70;83573.56;5028466;28;20017;-67
2023/11/08 04:47:19;;;;;;;12.25;5.82;;;;;;;-146.27;90.20;83589.66;5023179;28;20030;-67
2023/11/08 04:49:47;;;;;;;14.98;6.80;;;;;;;-146.27;90.04;83613.75;5024791;28;20651;-67
2023/11/08 04:52:13;;;;;;;13.70;6.00;;;;;;;-146.27;90.43;83621.81;5026957;28;20024;-67
2023/11/08 04:54:39;;;;;;;23.13;5.32;;;;;;;-146.27;90.58;83676.06;5025212;28;20125;-66
2023/11/08 04:57:04;;;;;;;16.45;5.38;;;;;;;-146.27;90.90;83585.63;5038509;28;20104;-66
2023/11/08 04:59:30;;;;;;;11.43;6.38;;;;;;;-146.27;90.13;83587.63;5025779;28;20474;-66
2023/11/08 05:01:55;;;;;;;9.73;5.00;;;;;;;-146.27;89.93;83597.69;5022748;28;20025;-66
2023/11/08 05:04:21;;;;;;;16.75;4.65;;;;;;;-146.27;90.42;83662.00;5035945;28;20033;-66
2023/11/08 05:06:47;;;;;;;14.57;4.28;;;;;;;-146.27;90.00;83609.75;5027703;28;20485;-66
2023/11/08 05:09:15;;;;;;;17.20;4.40;;;;;;;-146.27;89.82;83611.75;5032040;28;20070;-66
2023/11/08 05:11:41;;;;;;;22.30;4.20;;;;;;;-146.27;89.71;83609.75;5022200;28;20492;-67
2023/11/08 05:14:07;;;;;;;10.57;3.17;;;;;;;-146.27;90.38;83637.88;5025016;28;20440;-68
2023/11/08 05:16:32;;;;;;;10.57;3.13;;;;;;;-146.27;89.01;83557.50;5029102;28;20041;-68
2023/11/08 05:18:58;;;;;;;16.38;2.78;;;;;;;-146.27;88.80;83553.47;5031307;28;20021;-68
2023/11/08 05:21:23;;;;;;;11.43;3.33;;;;;;;-146.27;90.10;83710.22;5032923;28;20477;-68
2023/11/08 05:23:49;;;;;;;13.82;2.92;;;;;;;-146.27;89.45;83597.69;5027462;28;20057;-68
2023/11/08 05:26:16;;;;;;;10.02;1.88;;;;;;;-146.27;89.70;83690.13;5025449;28;20017;-69
2023/11/08 05:28:42;;;;;;;11.32;2.17;;;;;;;-146.27;89.56;83651.94;5032310;28;20026;-69
2023/11/08 05:31:07;;;;;;;9.90;2.53;;;;;;;-146.27;89.92;83649.94;5017421;28;20037;-69
2023/11/08 05:33:32;;;;;;;12.15;2.28;;;;;;;-146.27;89.71;83647.91;5034278;28;20064;-69
2023/11/08 05:35:59;;;;;;;9.63;2.45;;;;;;;-146.27;88.99;83633.84;5030540;28;20017;-69
2023/11/08 05:38:24;;;;;;;9.00;1.98;;;;;;;-146.27;88.97;83627.81;5036629;28;20430;-69
2023/11/08 05:40:50;;;;;;;12.05;2.15;;;;;;;-146.27;89.12;83637.88;5037090;28;20053;-69
2023/11/08 05:43:15;;;;;;;10.70;2.58;;;;;;;-146.27;88.75;83643.91;5035449;28;20025;-68
2023/11/08 05:45:41;;;;;;;18.50;2.35;;;;;;;-146.27;88.97;83645.91;5027919;28;20029;-68
2023/11/08 05:48:07;;;;;;;7.13;1.63;;;;;;;-146.27;88.49;83601.72;5033844;28;20028;-68
2023/11/08 05:50:32;;;;;;;5.45;1.90;;;;;;;-146.27;89.13;83678.06;5033744;28;20110;-68
2023/11/08 05:52:58;;;;;;;16.67;2.30;;;;;;;-146.27;88.70;83649.94;5026145;28;20017;-69
2023/11/08 05:55:23;;;;;;;13.68;1.85;;;;;;;-146.27;88.26;83595.69;5030140;28;20193;-68
2023/11/08 05:57:49;;;;;;;13.02;2.25;;;;;;;-146.27;87.43;83605.72;5035120;28;20025;-68
2023/11/08 06:00:15;;;;;;;9.52;1.67;;;;;;;-146.27;87.66;83563.53;5035681;28;20497;-68
2023/11/08 06:02:40;;;;;;;11.95;1.55;;;;;;;-146.27;87.23;83573.56;5034499;28;22050;-68
2023/11/08 06:05:05;;;;;;;9.52;1.63;;;;;;;-146.27;87.92;83629.84;5035075;28;20056;-68
2023/11/08 06:07:32;;;;;;;11.85;1.67;;;;;;;-146.27;87.95;83603.72;5030434;28;20021;-68
2023/11/08 06:10:00;;;;;;;6.95;1.67;;;;;;;-146.27;88.36;83653.94;5032791;28;20025;-68
2023/11/08 06:12:25;;;;;;;13.55;1.65;;;;;;;-146.27;87.91;83621.81;5039646;28;20028;-68
2023/11/08 06:14:51;;;;;;;4.63;1.52;;;;;;;-146.27;87.59;83581.59;5027279;28;20026;-68
2023/11/08 06:17:16;;;;;;;3.70;1.50;;;;;;;-146.27;88.19;83645.91;5027646;28;20834;-69
2023/11/08 06:19:41;;;;;;;13.43;1.85;;;;;;;-146.27;87.94;83617.78;5038365;28;20108;-69
2023/11/08 06:22:07;;;;;;;10.73;1.70;;;;;;;-146.27;87.32;83599.69;5035012;28;20120;-68
2023/11/08 06:24:32;;;;;;;6.00;1.63;;;;;;;-146.27;87.07;83597.69;5036833;28;20155;-66
2023/11/08 06:27:00;;;;;;;10.82;2.17;;;;;;;-146.27;86.79;83597.69;5027688;28;20021;-67
2023/11/08 06:29:26;;;;;;;13.23;2.40;;;;;;;-146.27;86.96;83567.53;5031516;28;20362;-66
2023/11/08 06:31:51;;;;;;;6.50;1.65;;;;;;;-146.27;86.62;83559.50;5037505;28;20017;-67
2023/11/08 06:34:17;;;;;;;6.60;2.05;;;;;;;-146.27;86.36;83589.66;5027507;28;20026;-67
2023/11/08 06:36:42;;;;;;;8.52;1.52;;;;;;;-146.27;87.16;83617.78;5039731;28;20032;-67
2023/11/08 06:39:12;;;;;;;13.82;2.05;;;;;;;-146.27;87.22;83625.81;5021274;28;21633;-66
2023/11/08 06:41:38;;;;;;;7.53;2.13;;;;;;;-146.27;86.62;83581.59;5029535;28;20029;-67
2023/11/08 06:44:05;;;;;;;13.23;1.88;;;;;;;-146.27;86.37;83601.72;5027556;28;20144;-67
2023/11/08 06:46:30;;;;;;;9.45;1.40;;;;;;;-146.27;87.14;83613.75;5027913;28;20040;-67
2023/11/08 06:48:57;;;;;;;3.90;1.48;;;;;;;-146.27;86.79;83613.75;5027235;28;20021;-66
2023/11/08 06:51:23;;;;;;;10.80;2.17;;;;;;;-146.27;87.00;83621.81;5031515;28;20405;-67
2023/11/08 06:53:49;;;;;;;6.57;1.73;;;;;;;-146.27;86.62;83611.75;5033055;28;20026;-65
2023/11/08 06:56:15;;;;;;;6.72;1.27;;;;;;;-146.27;86.01;83581.59;5033362;28;20488;-66
2023/11/08 06:58:40;;;;;;;15.07;2.55;;;;;;;-146.27;87.07;83653.94;5033101;28;20025;-68
2023/11/08 07:01:05;;;;;;;7.03;1.80;;;;;;;-146.27;86.31;83643.91;5032225;28;20569;-66
2023/11/08 07:03:31;;;;;;;9.40;1.80;;;;;;;-146.27;86.99;83666.00;5037507;28;20053;-66
2023/11/08 07:05:57;;;;;;;6.68;1.35;;;;;;;-146.27;87.00;83629.84;5021386;28;20042;-67
2023/11/08 07:08:23;;;;;;;8.27;1.75;;;;;;;-146.27;85.94;83613.75;5029438;28;20032;-65
2023/11/08 07:10:50;;;;;;;7.30;1.92;;;;;;;-146.27;86.30;83627.81;5030162;28;20126;-66
2023/11/08 07:13:16;;;;;;;4.60;1.60;;;;;;;-146.27;86.88;83678.06;5028054;28;20030;-67
2023/11/08 07:15:41;;;;;;;5.40;1.80;;;;;;;-146.27;86.16;83607.72;5027062;28;20520;-66
2023/11/08 07:18:06;;;;;;;5.05;2.00;;;;;;;-146.27;85.79;83615.78;5025251;28;21126;-65
2023/11/08 07:20:32;;;;;;;7.90;2.22;;;;;;;-146.27;85.55;83605.72;5027852;28;20358;-64
2023/11/08 07:22:57;;;;;;;12.05;1.40;;;;;;;-146.27;85.44;83577.59;5025763;28;20139;-66
2023/11/08 07:25:22;;;;;;;4.90;1.30;;;;;;;-146.27;85.68;83517.31;5034596;28;20491;-66
2023/11/08 07:27:47;;;;;;;3.67;1.55;;;;;;;-146.27;86.09;83657.97;5032172;28;20527;-66
2023/11/08 07:30:16;;;;;;;5.70;1.55;;;;;;;-146.27;85.66;83549.47;5023553;28;20529;-66
2023/11/08 07:32:45;;;;;;;7.00;1.85;;;;;;;-146.27;85.35;83651.94;5023525;28;20044;-67
2023/11/08 07:35:11;;;;;;;5.78;2.25;;;;;;;-146.27;85.75;83625.81;5029231;28;20037;-66
2023/11/08 07:37:39;;;;;;;7.10;1.10;;;;;;;-146.27;86.02;83631.84;5034067;28;20047;-67
2023/11/08 07:40:15;;;;;;;4.90;1.30;;;;;;;-146.27;85.20;83601.72;5026836;28;20041;-67
2023/11/08 07:42:42;;;;;;;4.28;1.25;;;;;;;-146.27;85.27;83629.84;5029518;28;20027;-67
2023/11/08 07:45:08;;;;;;;4.20;1.42;;;;;;;-146.27;84.67;83609.75;5017320;28;20031;-67
2023/11/08 07:47:34;;;;;;;7.90;1.45;;;;;;;-146.27;84.81;83583.63;5031404;28;20374;-67
2023/11/08 07:49:59;;;;;;;5.28;1.58;;;;;;;-146.27;84.03;83541.41;5043947;28;20036;-67
2023/11/08 07:52:25;;;;;;;5.78;1.27;;;;;;;-146.27;83.93;83537.41;5031289;28;20029;-69
2023/11/08 07:54:53;;;;;;;4.28;1.50;;;;;;;-146.27;84.48;83591.66;5029462;28;20112;-67
2023/11/08 07:57:18;;;;;;;3.45;1.40;;;;;;;-146.27;84.69;83587.63;5018233;28;20533;-67
2023/11/08 07:59:45;;;;;;;6.07;1.77;;;;;;;-146.27;84.19;83533.38;5038948;28;20033;-67
2023/11/08 08:02:11;;;;;;;7.40;1.48;;;;;;;-146.27;84.69;83601.72;5044438;28;20129;-67
2023/11/08 08:04:37;;;;;;;6.38;1.63;;;;;;;-146.27;84.34;83509.28;5043642;28;20103;-67
2023/11/08 08:07:06;;;;;;;4.60;1.60;;;;;;;-146.27;84.52;83521.34;5031139;28;20092;-68
2023/11/08 08:09:32;;;;;;;5.60;1.67;;;;;;;-146.27;84.69;83561.53;5035904;28;20059;-67
2023/11/08 08:11:57;;;;;;;2.38;1.52;;;;;;;-146.27;85.05;83561.53;5021159;28;20022;-66
2023/11/08 08:14:24;;;;;;;5.07;1.80;;;;;;;-146.27;84.21;83545.44;5029691;28;20105;-67
2023/11/08 08:16:50;;;;;;;3.70;1.60;;;;;;;-146.27;84.96;83569.56;5011376;28;20057;-67
2023/11/08 08:19:16;;;;;;;3.78;1.67;;;;;;;-146.27;84.86;83539.41;5021589;28;20030;-66
2023/11/08 08:21:43;;;;;;;7.93;1.80;;;;;;;-146.27;84.54;83529.38;5030003;28;20048;-67
2023/11/08 08:24:09;;;;;;;8.35;2.22;;;;;;;-146.27;84.35;83553.47;5029207;28;20045;-67
2023/11/08 08:26:35;;;;;;;8.65;2.00;;;;;;;-146.27;83.63;83483.16;5026350;28;20033;-67
2023/11/08 08:29:01;;;;;;;3.97;1.58;;;;;;;-146.27;83.93;83469.09;5025393;28;20036;-67
2023/11/08 08:31:27;;;;;;;6.43;2.22;;;;;;;-146.27;83.71;83557.50;5036020;28;20053;-67
2023/11/08 08:33:56;;;;;;;5.50;1.67;;;;;;;-146.27;83.21;83485.16;5036885;28;20480;-68
2023/11/08 08:36:22;;;;;;;11.65;2.03;;;;;;;-146.27;83.87;83517.31;5031698;28;20025;-68
2023/11/08 08:38:48;;;;;;;7.38;2.00;;;;;;;-146.27;83.97;83493.19;5024902;28;20362;-66
2023/11/08 08:41:13;;;;;;;6.43;2.15;;;;;;;-146.27;84.46;83533.38;5027967;28;20117;-70
2023/11/08 08:43:38;;;;;;;10.63;2.13;;;;;;;-146.27;83.68;83491.19;5029117;28;20025;-69
2023/11/08 08:46:04;;;;;;;10.52;2.58;;;;;;;-146.27;83.31;83469.09;5027437;28;20029;-69
2023/11/08 08:48:30;;;;;;;5.18;1.88;;;;;;;-146.27;83.77;83521.34;5041418;28;20091;-70
2023/11/08 08:50:56;;;;;;;9.68;2.22;;;;;;;-146.27;84.23;83529.38;5048536;28;20037;-77
2023/11/08 08:53:21;;;;;;;8.05;2.33;;;;;;;-146.27;84.24;83493.19;5021524;28;20385;-70
2023/11/08 08:55:46;;;;;;;7.50;2.22;;;;;;;-146.27;84.34;83553.47;5029351;28;20056;-71
2023/11/08 08:58:12;;;;;;;7.18;2.05;;;;;;;-146.27;83.89;83471.09;5036330;28;20025;-70
2023/11/08 09:00:37;;;;;;;7.38;2.38;;;;;;;-146.27;83.52;83507.25;5026425;28;20048;-70
2023/11/08 09:03:07;;;;;;;7.28;2.50;;;;;;;-146.27;83.12;83436.94;5034973;28;20481;-71
2023/11/08 09:05:32;;;;;;;4.70;2.00;;;;;;;-146.27;82.48;83432.91;5027870;28;20709;-71
2023/11/08 09:07:58;;;;;;;8.85;2.40;;;;;;;-146.27;82.55;83453.00;5026394;28;20105;-70
2023/11/08 09:10:23;;;;;;;8.98;2.20;;;;;;;-146.27;83.25;83529.38;5053387;28;20024;-71
2023/11/08 09:12:49;;;;;;;10.88;2.58;;;;;;;-146.27;84.04;83499.22;5038664;28;20026;-69
2023/11/08 09:15:14;;;;;;;5.35;2.33;;;;;;;-146.27;84.33;83519.31;5037220;28;20626;-70
2023/11/08 09:17:40;;;;;;;7.72;2.22;;;;;;;-146.27;83.95;83497.22;5033796;28;20057;-70
2023/11/08 09:20:09;;;;;;;16.13;3.08;;;;;;;-146.27;85.20;83467.06;5031762;28;20033;-71
2023/11/08 09:22:36;;;;;;;11.07;2.50;;;;;;;-146.27;84.62;83529.38;5030766;28;20037;-70
2023/11/08 09:25:04;;;;;;;11.70;2.80;;;;;;;-146.27;84.87;83505.25;5033415;28;20393;-70
2023/11/08 09:27:30;;;;;;;6.60;2.60;;;;;;;-146.27;86.05;83521.34;5046289;28;20071;-70
2023/11/08 09:29:55;;;;;;;15.10;3.33;;;;;;;-146.27;85.29;83525.34;5046552;28;20033;-71
2023/11/08 09:32:21;;;;;;;11.00;2.83;;;;;;;-146.27;86.26;83541.41;5028693;28;20025;-70
2023/11/08 09:34:49;;;;;;;4.20;2.33;;;;;;;-146.27;86.59;83607.72;5045337;28;20572;-71
2023/11/08 09:37:15;;;;;;;8.55;2.88;;;;;;;-146.27;85.28;83489.19;5034851;28;20036;-70
2023/11/08 09:39:40;;;;;;;6.82;3.10;;;;;;;-146.27;85.62;83507.25;5026503;28;20503;-71
2023/11/08 09:42:06;;;;;;;12.25;3.28;;;;;;;-146.27;85.24;83493.19;5034452;28;20083;-71
2023/11/08 09:44:32;;;;;;;10.82;3.35;;;;;;;-146.27;84.57;83461.06;5030112;28;20026;-70
2023/11/08 09:46:58;;;;;;;17.20;3.55;;;;;;;-146.27;85.15;83473.09;5042937;28;20064;-70
2023/11/08 09:49:24;;;;;;;11.43;2.72;;;;;;;-146.27;84.23;83519.31;5045458;28;20195;-71
2023/11/08 09:51:53;;;;;;;10.60;2.63;;;;;;;-146.27;84.29;83525.34;5028635;28;20048;-72
2023/11/08 09:54:18;;;;;;;10.27;2.75;;;;;;;-146.27;83.09;83424.88;5033439;28;20041;-71
2023/11/08 09:56:45;;;;;;;20.67;3.33;;;;;;;-146.27;82.18;83418.84;5028055;28;20071;-73
2023/11/08 09:59:17;;;;;;;12.52;2.42;;;;;;;-146.27;82.06;83461.06;5040284;28;20041;-71
2023/11/08 10:01:47;;;;;;;11.45;2.60;;;;;;;-146.27;81.62;83461.06;5040695;28;20645;-71
2023/11/08 10:04:15;;;;;;;14.35;2.75;;;;;;;-146.27;82.32;83513.28;5042258;28;20111;-71
2023/11/08 10:06:41;;;;;;;18.52;3.03;;;;;;;-146.27;81.07;83412.81;5052346;28;20127;-71
2023/11/08 10:09:06;;;;;;;16.92;2.80;;;;;;;-146.27;79.83;83432.91;5035696;28;20104;-72
2023/11/08 10:11:35;;;;;;;12.55;2.15;;;;;;;-146.27;79.75;83513.28;5040081;28;20108;-71
2023/11/08 10:14:00;;;;;;;9.75;2.78;;;;;;;-146.27;78.62;83294.28;5027006;28;20041;-72
2023/11/08 10:16:26;;;;;;;10.20;2.50;;;;;;;-146.27;78.29;83344.50;5036157;28;20489;-72
2023/11/08 10:18:57;;;;;;;7.25;2.40;;;;;;;-146.27;78.10;83394.75;5049817;28;20021;-71
2023/11/08 10:21:24;;;;;;;11.00;2.30;;;;;;;-146.27;77.69;83384.69;5027360;28;20055;-71
2023/11/08 10:23:52;;;;;;;15.48;2.70;;;;;;;-146.27;77.33;83348.53;5031863;28;20017;-72
2023/11/08 10:26:19;;;;;;;13.00;2.85;;;;;;;-146.27;77.30;83300.31;5039742;28;20027;-70
2023/11/08 10:28:55;;;;;;;6.80;2.45;;;;;;;-146.27;78.21;83400.78;5050445;28;20055;-72
2023/11/08 10:31:37;;;;;;;14.32;3.17;;;;;;;-146.27;78.76;83332.44;5029238;28;20061;-70
2023/11/08 10:34:06;;;;;;;9.05;2.00;;;;;;;-146.27;78.60;83392.72;5032969;28;20511;-71
2023/11/08 10:36:32;;;;;;;9.10;2.50;;;;;;;-146.27;77.89;83404.78;5036187;28;20485;-72
2023/11/08 10:38:58;;;;;;;5.72;2.17;;;;;;;-146.27;78.54;83422.88;5034483;28;20025;-72
2023/11/08 10:41:24;;;;;;;11.60;2.97;;;;;;;-146.27;78.29;83440.94;5025102;28;20031;-71
2023/11/08 10:44:11;;;;;;;7.63;2.67;;;;;;;-146.27;78.62;83376.66;5031397;28;20029;-71
2023/11/08 10:46:41;;;;;;;14.07;2.45;;;;;;;-146.27;78.29;83400.78;5030257;28;20421;-70
2023/11/08 10:49:09;;;;;;;9.48;2.80;;;;;;;-146.27;78.35;83449.00;5030265;28;20720;-71
2023/11/08 10:51:40;;;;;;;7.57;2.65;;;;;;;-146.27;77.17;83368.63;5030608;28;20473;-71
2023/11/08 10:54:06;;;;;;;9.13;2.28;;;;;;;-146.27;76.98;83304.31;5029007;28;20657;-72
2023/11/08 10:56:33;;;;;;;7.82;2.30;;;;;;;-146.27;77.87;83418.84;5029179;28;20067;-71
2023/11/08 10:59:03;;;;;;;12.85;3.45;;;;;;;-146.27;77.53;83274.19;5029556;28;20029;-71
2023/11/08 11:01:30;;;;;;;6.68;2.15;;;;;;;-146.27;78.15;83422.88;5021505;28;20029;-70
2023/11/08 11:04:05;;;;;;;9.43;2.33;;;;;;;-146.27;77.52;83342.50;5031953;28;20385;-71
2023/11/08 11:06:34;;;;;;;7.80;2.13;;;;;;;-146.27;77.05;83316.38;5037513;28;20231;-70
2023/11/08 11:09:10;;;;;;;11.57;2.80;;;;;;;-146.27;76.75;83246.06;5034625;28;20504;-70